sensor_id;sensor_type;location;lat;lon;timestamp;P1;durP1;ratioP1;P2;durP2;ratioP2
17858;SDS011;35426;30.698;104.050;2022-08-16T00:01:52;16.83;;;11.45;;
17858;SDS011;35426;30.698;104.050;2022-08-16T00:04:26;16.80;;;11.90;;
17858;SDS011;35426;30.698;104.050;2022-08-16T00:07:05;16.85;;;12.70;;
17858;SDS011;35426;30.698;104.050;2022-08-16T00:09:40;17.48;;;12.23;;
17858;SDS011;35426;30.698;104.050;2022-08-16T00:12:13;16.95;;;12.25;;
17858;SDS011;35426;30.698;104.050;2022-08-16T00:14:47;15.82;;;12.27;;
17858;SDS011;35426;30.698;104.050;2022-08-16T00:17:24;16.48;;;12.43;;
17858;SDS011;35426;30.698;104.050;2022-08-16T00:20:24;17.67;;;12.73;;
17858;SDS011;35426;30.698;104.050;2022-08-16T00:23:00;16.38;;;12.30;;
17858;SDS011;35426;30.698;104.050;2022-08-16T00:25:37;14.48;;;11.85;;
17858;SDS011;35426;30.698;104.050;2022-08-16T00:28:31;22.17;;;12.48;;
17858;SDS011;35426;30.698;104.050;2022-08-16T00:31:06;17.30;;;13.20;;
17858;SDS011;35426;30.698;104.050;2022-08-16T00:33:41;17.85;;;13.23;;
17858;SDS011;35426;30.698;104.050;2022-08-16T00:36:17;20.00;;;12.63;;
17858;SDS011;35426;30.698;104.050;2022-08-16T00:38:53;20.73;;;13.35;;
17858;SDS011;35426;30.698;104.050;2022-08-16T00:41:28;19.40;;;13.32;;
17858;SDS011;35426;30.698;104.050;2022-08-16T00:44:05;20.33;;;13.13;;
17858;SDS011;35426;30.698;104.050;2022-08-16T00:47:01;20.20;;;13.85;;
17858;SDS011;35426;30.698;104.050;2022-08-16T00:49:38;20.50;;;14.52;;
17858;SDS011;35426;30.698;104.050;2022-08-16T00:52:23;19.40;;;14.48;;
17858;SDS011;35426;30.698;104.050;2022-08-16T00:54:59;24.27;;;14.88;;
17858;SDS011;35426;30.698;104.050;2022-08-16T00:57:35;23.83;;;15.23;;
17858;SDS011;35426;30.698;104.050;2022-08-16T01:00:28;28.58;;;15.48;;
17858;SDS011;35426;30.698;104.050;2022-08-16T01:03:06;21.00;;;14.80;;
17858;SDS011;35426;30.698;104.050;2022-08-16T01:05:41;26.52;;;15.50;;
17858;SDS011;35426;30.698;104.050;2022-08-16T01:08:17;21.58;;;15.25;;
17858;SDS011;35426;30.698;104.050;2022-08-16T01:11:05;29.15;;;15.68;;
17858;SDS011;35426;30.698;104.050;2022-08-16T01:13:40;27.10;;;14.95;;
17858;SDS011;35426;30.698;104.050;2022-08-16T01:16:16;21.98;;;14.70;;
17858;SDS011;35426;30.698;104.050;2022-08-16T01:18:56;25.27;;;14.80;;
17858;SDS011;35426;30.698;104.050;2022-08-16T01:21:35;26.77;;;15.60;;
17858;SDS011;35426;30.698;104.050;2022-08-16T01:24:19;25.83;;;16.02;;
17858;SDS011;35426;30.698;104.050;2022-08-16T01:27:18;29.02;;;16.33;;
17858;SDS011;35426;30.698;104.050;2022-08-16T01:29:56;29.58;;;17.20;;
17858;SDS011;35426;30.698;104.050;2022-08-16T01:32:50;22.35;;;15.70;;
17858;SDS011;35426;30.698;104.050;2022-08-16T01:35:42;30.27;;;16.95;;
17858;SDS011;35426;30.698;104.050;2022-08-16T01:38:21;33.35;;;17.35;;
17858;SDS011;35426;30.698;104.050;2022-08-16T01:40:59;29.60;;;16.90;;
17858;SDS011;35426;30.698;104.050;2022-08-16T01:43:34;29.10;;;17.35;;
17858;SDS011;35426;30.698;104.050;2022-08-16T01:46:25;33.83;;;17.52;;
17858;SDS011;35426;30.698;104.050;2022-08-16T01:49:15;29.95;;;17.15;;
17858;SDS011;35426;30.698;104.050;2022-08-16T01:51:53;29.67;;;17.33;;
17858;SDS011;35426;30.698;104.050;2022-08-16T01:54:41;24.20;;;17.02;;
17858;SDS011;35426;30.698;104.050;2022-08-16T01:57:22;29.20;;;16.70;;
17858;SDS011;35426;30.698;104.050;2022-08-16T01:59:59;32.20;;;17.33;;
17858;SDS011;35426;30.698;104.050;2022-08-16T02:02:46;27.80;;;16.83;;
17858;SDS011;35426;30.698;104.050;2022-08-16T02:05:21;27.10;;;16.20;;
17858;SDS011;35426;30.698;104.050;2022-08-16T02:08:01;25.48;;;15.00;;
17858;SDS011;35426;30.698;104.050;2022-08-16T02:10:55;21.00;;;14.05;;
17858;SDS011;35426;30.698;104.050;2022-08-16T02:13:30;23.52;;;12.88;;
17858;SDS011;35426;30.698;104.050;2022-08-16T02:16:13;22.83;;;13.55;;
17858;SDS011;35426;30.698;104.050;2022-08-16T02:18:47;24.48;;;12.23;;
17858;SDS011;35426;30.698;104.050;2022-08-16T02:21:21;18.23;;;10.80;;
17858;SDS011;35426;30.698;104.050;2022-08-16T02:23:58;16.00;;;11.27;;
17858;SDS011;35426;30.698;104.050;2022-08-16T02:26:52;16.45;;;10.77;;
17858;SDS011;35426;30.698;104.050;2022-08-16T02:29:29;14.55;;;10.50;;
17858;SDS011;35426;30.698;104.050;2022-08-16T02:32:09;17.20;;;9.55;;
17858;SDS011;35426;30.698;104.050;2022-08-16T02:35:05;16.45;;;9.98;;
17858;SDS011;35426;30.698;104.050;2022-08-16T02:37:43;19.17;;;10.93;;
17858;SDS011;35426;30.698;104.050;2022-08-16T02:40:23;16.30;;;10.50;;
17858;SDS011;35426;30.698;104.050;2022-08-16T02:42:57;16.05;;;10.52;;
17858;SDS011;35426;30.698;104.050;2022-08-16T02:45:34;21.63;;;10.88;;
17858;SDS011;35426;30.698;104.050;2022-08-16T02:48:08;17.92;;;9.57;;
17858;SDS011;35426;30.698;104.050;2022-08-16T02:51:00;15.05;;;10.02;;
17858;SDS011;35426;30.698;104.050;2022-08-16T02:53:41;15.60;;;9.82;;
17858;SDS011;35426;30.698;104.050;2022-08-16T02:56:17;17.25;;;9.90;;
17858;SDS011;35426;30.698;104.050;2022-08-16T02:59:04;17.17;;;9.70;;
17858;SDS011;35426;30.698;104.050;2022-08-16T03:01:44;18.02;;;9.18;;
17858;SDS011;35426;30.698;104.050;2022-08-16T03:04:27;19.23;;;8.48;;
17858;SDS011;35426;30.698;104.050;2022-08-16T03:07:21;17.10;;;9.10;;
17858;SDS011;35426;30.698;104.050;2022-08-16T03:09:55;19.05;;;7.80;;
17858;SDS011;35426;30.698;104.050;2022-08-16T03:12:31;13.93;;;7.90;;
17858;SDS011;35426;30.698;104.050;2022-08-16T03:15:27;13.27;;;8.05;;
17858;SDS011;35426;30.698;104.050;2022-08-16T03:18:03;17.95;;;7.30;;
17858;SDS011;35426;30.698;104.050;2022-08-16T03:20:56;11.30;;;7.60;;
17858;SDS011;35426;30.698;104.050;2022-08-16T03:23:31;13.98;;;7.13;;
17858;SDS011;35426;30.698;104.050;2022-08-16T03:26:08;13.65;;;7.80;;
17858;SDS011;35426;30.698;104.050;2022-08-16T03:28:48;13.45;;;7.60;;
17858;SDS011;35426;30.698;104.050;2022-08-16T03:31:24;13.10;;;7.32;;
17858;SDS011;35426;30.698;104.050;2022-08-16T03:34:11;15.38;;;7.78;;
17858;SDS011;35426;30.698;104.050;2022-08-16T03:36:48;14.90;;;7.50;;
17858;SDS011;35426;30.698;104.050;2022-08-16T03:39:21;16.55;;;7.20;;
17858;SDS011;35426;30.698;104.050;2022-08-16T03:41:58;11.60;;;7.35;;
17858;SDS011;35426;30.698;104.050;2022-08-16T03:44:36;17.17;;;8.20;;
17858;SDS011;35426;30.698;104.050;2022-08-16T03:47:23;18.42;;;8.10;;
17858;SDS011;35426;30.698;104.050;2022-08-16T03:50:04;15.23;;;8.80;;
17858;SDS011;35426;30.698;104.050;2022-08-16T03:52:55;16.60;;;8.68;;
17858;SDS011;35426;30.698;104.050;2022-08-16T03:55:36;12.32;;;8.48;;
17858;SDS011;35426;30.698;104.050;2022-08-16T03:58:14;16.45;;;9.15;;
17858;SDS011;35426;30.698;104.050;2022-08-16T04:00:50;17.80;;;9.25;;
17858;SDS011;35426;30.698;104.050;2022-08-16T04:03:27;14.48;;;8.10;;
17858;SDS011;35426;30.698;104.050;2022-08-16T04:06:03;12.00;;;7.82;;
17858;SDS011;35426;30.698;104.050;2022-08-16T04:08:38;13.68;;;7.88;;
17858;SDS011;35426;30.698;104.050;2022-08-16T04:11:12;14.50;;;7.70;;
17858;SDS011;35426;30.698;104.050;2022-08-16T04:13:50;14.95;;;8.77;;
17858;SDS011;35426;30.698;104.050;2022-08-16T04:16:40;15.38;;;8.90;;
17858;SDS011;35426;30.698;104.050;2022-08-16T04:19:32;15.73;;;8.35;;
17858;SDS011;35426;30.698;104.050;2022-08-16T04:22:16;13.38;;;7.80;;
17858;SDS011;35426;30.698;104.050;2022-08-16T04:24:59;16.40;;;8.68;;
17858;SDS011;35426;30.698;104.050;2022-08-16T04:27:36;11.27;;;7.90;;
17858;SDS011;35426;30.698;104.050;2022-08-16T04:30:22;18.85;;;9.23;;
17858;SDS011;35426;30.698;104.050;2022-08-16T04:33:03;21.15;;;9.38;;
17858;SDS011;35426;30.698;104.050;2022-08-16T04:35:41;17.05;;;9.65;;
17858;SDS011;35426;30.698;104.050;2022-08-16T04:38:18;15.98;;;9.43;;
17858;SDS011;35426;30.698;104.050;2022-08-16T04:40:57;16.42;;;9.27;;
17858;SDS011;35426;30.698;104.050;2022-08-16T04:43:33;16.73;;;8.80;;
17858;SDS011;35426;30.698;104.050;2022-08-16T04:46:12;14.23;;;9.00;;
17858;SDS011;35426;30.698;104.050;2022-08-16T04:49:06;15.65;;;10.52;;
17858;SDS011;35426;30.698;104.050;2022-08-16T04:51:41;16.77;;;9.10;;
17858;SDS011;35426;30.698;104.050;2022-08-16T04:54:24;14.50;;;9.05;;
17858;SDS011;35426;30.698;104.050;2022-08-16T04:56:59;16.75;;;8.88;;
17858;SDS011;35426;30.698;104.050;2022-08-16T04:59:33;18.58;;;9.55;;
17858;SDS011;35426;30.698;104.050;2022-08-16T05:02:09;17.73;;;9.23;;
17858;SDS011;35426;30.698;104.050;2022-08-16T05:05:03;16.77;;;9.75;;
17858;SDS011;35426;30.698;104.050;2022-08-16T05:07:45;14.15;;;9.38;;
17858;SDS011;35426;30.698;104.050;2022-08-16T05:10:32;14.77;;;9.77;;
17858;SDS011;35426;30.698;104.050;2022-08-16T05:13:07;17.85;;;10.43;;
17858;SDS011;35426;30.698;104.050;2022-08-16T05:15:42;17.77;;;10.63;;
17858;SDS011;35426;30.698;104.050;2022-08-16T05:18:31;15.27;;;9.95;;
17858;SDS011;35426;30.698;104.050;2022-08-16T05:21:05;18.45;;;11.27;;
17858;SDS011;35426;30.698;104.050;2022-08-16T05:23:42;17.38;;;10.57;;
17858;SDS011;35426;30.698;104.050;2022-08-16T05:26:28;15.38;;;9.88;;
17858;SDS011;35426;30.698;104.050;2022-08-16T05:29:03;23.05;;;10.20;;
17858;SDS011;35426;30.698;104.050;2022-08-16T05:31:48;17.42;;;10.70;;
17858;SDS011;35426;30.698;104.050;2022-08-16T05:34:23;15.07;;;10.55;;
17858;SDS011;35426;30.698;104.050;2022-08-16T05:36:57;18.63;;;11.45;;
17858;SDS011;35426;30.698;104.050;2022-08-16T05:39:35;15.88;;;11.02;;
17858;SDS011;35426;30.698;104.050;2022-08-16T05:42:14;16.20;;;10.82;;
17858;SDS011;35426;30.698;104.050;2022-08-16T05:45:04;18.85;;;11.23;;
17858;SDS011;35426;30.698;104.050;2022-08-16T05:47:50;17.30;;;10.80;;
17858;SDS011;35426;30.698;104.050;2022-08-16T05:50:32;17.20;;;11.82;;
17858;SDS011;35426;30.698;104.050;2022-08-16T05:53:08;17.98;;;11.73;;
17858;SDS011;35426;30.698;104.050;2022-08-16T05:55:58;18.58;;;11.70;;
17858;SDS011;35426;30.698;104.050;2022-08-16T05:58:38;16.42;;;11.02;;
17858;SDS011;35426;30.698;104.050;2022-08-16T06:01:15;17.50;;;11.65;;
17858;SDS011;35426;30.698;104.050;2022-08-16T06:03:51;17.25;;;11.60;;
17858;SDS011;35426;30.698;104.050;2022-08-16T06:06:31;19.23;;;12.27;;
17858;SDS011;35426;30.698;104.050;2022-08-16T06:09:08;17.65;;;12.68;;
17858;SDS011;35426;30.698;104.050;2022-08-16T06:11:45;20.17;;;13.10;;
17858;SDS011;35426;30.698;104.050;2022-08-16T06:14:23;20.95;;;12.77;;
17858;SDS011;35426;30.698;104.050;2022-08-16T06:16:58;19.63;;;12.40;;
17858;SDS011;35426;30.698;104.050;2022-08-16T06:19:41;21.02;;;13.45;;
17858;SDS011;35426;30.698;104.050;2022-08-16T06:22:17;18.88;;;12.40;;
17858;SDS011;35426;30.698;104.050;2022-08-16T06:25:07;19.50;;;12.82;;
17858;SDS011;35426;30.698;104.050;2022-08-16T06:27:42;20.40;;;12.27;;
17858;SDS011;35426;30.698;104.050;2022-08-16T06:30:31;19.23;;;13.00;;
17858;SDS011;35426;30.698;104.050;2022-08-16T06:33:11;23.98;;;13.48;;
17858;SDS011;35426;30.698;104.050;2022-08-16T06:35:51;16.60;;;12.85;;
17858;SDS011;35426;30.698;104.050;2022-08-16T06:38:29;19.95;;;13.20;;
17858;SDS011;35426;30.698;104.050;2022-08-16T06:41:14;19.77;;;13.32;;
17858;SDS011;35426;30.698;104.050;2022-08-16T06:43:48;19.83;;;13.20;;
17858;SDS011;35426;30.698;104.050;2022-08-16T06:46:29;18.55;;;13.00;;
17858;SDS011;35426;30.698;104.050;2022-08-16T06:49:17;24.88;;;12.93;;
17858;SDS011;35426;30.698;104.050;2022-08-16T06:51:52;24.08;;;13.70;;
17858;SDS011;35426;30.698;104.050;2022-08-16T06:54:35;20.67;;;13.63;;
17858;SDS011;35426;30.698;104.050;2022-08-16T06:57:17;18.60;;;13.20;;
17858;SDS011;35426;30.698;104.050;2022-08-16T06:59:51;19.70;;;13.32;;
17858;SDS011;35426;30.698;104.050;2022-08-16T07:02:40;17.73;;;12.95;;
17858;SDS011;35426;30.698;104.050;2022-08-16T07:05:20;16.17;;;12.40;;
17858;SDS011;35426;30.698;104.050;2022-08-16T07:08:20;20.50;;;13.18;;
17858;SDS011;35426;30.698;104.050;2022-08-16T07:10:54;17.55;;;12.95;;
17858;SDS011;35426;30.698;104.050;2022-08-16T07:13:34;20.08;;;12.60;;
17858;SDS011;35426;30.698;104.050;2022-08-16T07:16:32;21.75;;;12.82;;
17858;SDS011;35426;30.698;104.050;2022-08-16T07:19:11;25.35;;;12.45;;
17858;SDS011;35426;30.698;104.050;2022-08-16T07:21:46;20.35;;;13.35;;
17858;SDS011;35426;30.698;104.050;2022-08-16T07:24:28;19.55;;;12.15;;
17858;SDS011;35426;30.698;104.050;2022-08-16T07:27:13;19.13;;;12.80;;
17858;SDS011;35426;30.698;104.050;2022-08-16T07:29:47;20.67;;;13.50;;
17858;SDS011;35426;30.698;104.050;2022-08-16T07:32:43;19.63;;;12.90;;
17858;SDS011;35426;30.698;104.050;2022-08-16T07:35:21;18.42;;;12.90;;
17858;SDS011;35426;30.698;104.050;2022-08-16T07:37:57;18.92;;;13.38;;
17858;SDS011;35426;30.698;104.050;2022-08-16T07:40:42;19.70;;;13.55;;
17858;SDS011;35426;30.698;104.050;2022-08-16T07:43:27;20.48;;;13.15;;
17858;SDS011;35426;30.698;104.050;2022-08-16T07:46:07;21.77;;;12.95;;
17858;SDS011;35426;30.698;104.050;2022-08-16T07:49:07;21.75;;;13.45;;
17858;SDS011;35426;30.698;104.050;2022-08-16T07:51:43;17.98;;;12.18;;
17858;SDS011;35426;30.698;104.050;2022-08-16T07:54:27;19.92;;;12.90;;
17858;SDS011;35426;30.698;104.050;2022-08-16T07:57:13;23.42;;;13.07;;
17858;SDS011;35426;30.698;104.050;2022-08-16T07:59:53;21.00;;;12.70;;
17858;SDS011;35426;30.698;104.050;2022-08-16T08:02:30;14.63;;;10.30;;
17858;SDS011;35426;30.698;104.050;2022-08-16T08:05:11;17.42;;;10.60;;
17858;SDS011;35426;30.698;104.050;2022-08-16T08:08:05;17.25;;;10.05;;
17858;SDS011;35426;30.698;104.050;2022-08-16T08:11:01;11.98;;;10.35;;
17858;SDS011;35426;30.698;104.050;2022-08-16T08:13:36;15.75;;;10.90;;
17858;SDS011;35426;30.698;104.050;2022-08-16T08:16:15;11.57;;;10.27;;
17858;SDS011;35426;30.698;104.050;2022-08-16T08:18:59;16.15;;;10.60;;
17858;SDS011;35426;30.698;104.050;2022-08-16T08:21:37;15.95;;;11.05;;
17858;SDS011;35426;30.698;104.050;2022-08-16T08:24:40;14.95;;;10.75;;
17858;SDS011;35426;30.698;104.050;2022-08-16T08:27:15;15.43;;;10.85;;
17858;SDS011;35426;30.698;104.050;2022-08-16T08:29:52;14.95;;;10.60;;
17858;SDS011;35426;30.698;104.050;2022-08-16T08:32:56;15.68;;;10.38;;
17858;SDS011;35426;30.698;104.050;2022-08-16T08:35:43;15.90;;;10.57;;
17858;SDS011;35426;30.698;104.050;2022-08-16T08:38:18;13.85;;;11.05;;
17858;SDS011;35426;30.698;104.050;2022-08-16T08:41:19;13.93;;;10.55;;
17858;SDS011;35426;30.698;104.050;2022-08-16T08:44:00;18.35;;;10.63;;
17858;SDS011;35426;30.698;104.050;2022-08-16T08:46:55;15.90;;;10.93;;
17858;SDS011;35426;30.698;104.050;2022-08-16T08:49:36;14.30;;;10.80;;
17858;SDS011;35426;30.698;104.050;2022-08-16T08:52:18;16.23;;;11.10;;
17858;SDS011;35426;30.698;104.050;2022-08-16T08:55:06;17.30;;;10.98;;
17858;SDS011;35426;30.698;104.050;2022-08-16T08:57:44;18.55;;;11.02;;
17858;SDS011;35426;30.698;104.050;2022-08-16T09:00:42;17.02;;;11.60;;
17858;SDS011;35426;30.698;104.050;2022-08-16T09:03:20;17.77;;;11.65;;
17858;SDS011;35426;30.698;104.050;2022-08-16T09:05:56;17.05;;;12.32;;
17858;SDS011;35426;30.698;104.050;2022-08-16T09:08:32;15.00;;;12.20;;
17858;SDS011;35426;30.698;104.050;2022-08-16T09:11:16;16.10;;;12.00;;
17858;SDS011;35426;30.698;104.050;2022-08-16T09:14:10;18.27;;;12.35;;
17858;SDS011;35426;30.698;104.050;2022-08-16T09:16:53;22.98;;;12.35;;
17858;SDS011;35426;30.698;104.050;2022-08-16T09:19:41;15.65;;;11.88;;
17858;SDS011;35426;30.698;104.050;2022-08-16T09:22:21;17.42;;;11.75;;
17858;SDS011;35426;30.698;104.050;2022-08-16T09:24:57;16.58;;;12.27;;
17858;SDS011;35426;30.698;104.050;2022-08-16T09:27:39;15.40;;;11.93;;
17858;SDS011;35426;30.698;104.050;2022-08-16T09:30:33;16.58;;;11.65;;
17858;SDS011;35426;30.698;104.050;2022-08-16T09:33:12;16.83;;;12.13;;
17858;SDS011;35426;30.698;104.050;2022-08-16T09:35:49;15.77;;;11.40;;
17858;SDS011;35426;30.698;104.050;2022-08-16T09:38:30;18.60;;;12.07;;
17858;SDS011;35426;30.698;104.050;2022-08-16T09:41:08;16.52;;;12.48;;
17858;SDS011;35426;30.698;104.050;2022-08-16T09:43:43;16.75;;;11.68;;
17858;SDS011;35426;30.698;104.050;2022-08-16T09:46:29;16.73;;;11.65;;
17858;SDS011;35426;30.698;104.050;2022-08-16T09:49:16;16.08;;;11.95;;
17858;SDS011;35426;30.698;104.050;2022-08-16T09:51:50;18.88;;;11.90;;
17858;SDS011;35426;30.698;104.050;2022-08-16T09:54:25;23.80;;;12.82;;
17858;SDS011;35426;30.698;104.050;2022-08-16T09:57:00;21.20;;;12.38;;
17858;SDS011;35426;30.698;104.050;2022-08-16T09:59:40;17.75;;;12.38;;
17858;SDS011;35426;30.698;104.050;2022-08-16T10:02:24;22.27;;;12.77;;
17858;SDS011;35426;30.698;104.050;2022-08-16T10:04:59;19.55;;;12.52;;
17858;SDS011;35426;30.698;104.050;2022-08-16T10:07:34;17.63;;;12.05;;
17858;SDS011;35426;30.698;104.050;2022-08-16T10:10:13;20.15;;;12.45;;
17858;SDS011;35426;30.698;104.050;2022-08-16T10:12:57;31.42;;;16.70;;
17858;SDS011;35426;30.698;104.050;2022-08-16T10:15:45;20.55;;;12.85;;
17858;SDS011;35426;30.698;104.050;2022-08-16T10:18:28;28.42;;;12.77;;
17858;SDS011;35426;30.698;104.050;2022-08-16T10:21:23;21.38;;;13.55;;
17858;SDS011;35426;30.698;104.050;2022-08-16T10:23:59;21.25;;;12.90;;
17858;SDS011;35426;30.698;104.050;2022-08-16T10:26:33;25.10;;;13.25;;
17858;SDS011;35426;30.698;104.050;2022-08-16T10:29:27;25.63;;;16.83;;
17858;SDS011;35426;30.698;104.050;2022-08-16T10:32:22;25.88;;;16.52;;
17858;SDS011;35426;30.698;104.050;2022-08-16T10:34:59;51.83;;;33.10;;
17858;SDS011;35426;30.698;104.050;2022-08-16T10:37:33;21.88;;;16.83;;
17858;SDS011;35426;30.698;104.050;2022-08-16T10:40:08;27.55;;;16.02;;
17858;SDS011;35426;30.698;104.050;2022-08-16T10:42:57;35.95;;;26.67;;
17858;SDS011;35426;30.698;104.050;2022-08-16T10:45:35;22.13;;;14.45;;
17858;SDS011;35426;30.698;104.050;2022-08-16T10:48:27;25.60;;;18.52;;
17858;SDS011;35426;30.698;104.050;2022-08-16T10:51:08;28.75;;;15.32;;
17858;SDS011;35426;30.698;104.050;2022-08-16T10:53:43;23.67;;;13.88;;
17858;SDS011;35426;30.698;104.050;2022-08-16T10:56:18;25.02;;;13.63;;
17858;SDS011;35426;30.698;104.050;2022-08-16T10:59:12;22.58;;;14.20;;
17858;SDS011;35426;30.698;104.050;2022-08-16T11:02:07;30.23;;;15.20;;
17858;SDS011;35426;30.698;104.050;2022-08-16T11:05:05;20.58;;;14.18;;
17858;SDS011;35426;30.698;104.050;2022-08-16T11:07:44;31.00;;;14.52;;
17858;SDS011;35426;30.698;104.050;2022-08-16T11:10:25;19.95;;;13.25;;
17858;SDS011;35426;30.698;104.050;2022-08-16T11:13:20;37.67;;;25.42;;
17858;SDS011;35426;30.698;104.050;2022-08-16T11:16:15;26.52;;;14.75;;
17858;SDS011;35426;30.698;104.050;2022-08-16T11:18:54;22.75;;;15.98;;
17858;SDS011;35426;30.698;104.050;2022-08-16T11:21:39;19.45;;;13.80;;
17858;SDS011;35426;30.698;104.050;2022-08-16T11:24:37;21.20;;;13.95;;
17858;SDS011;35426;30.698;104.050;2022-08-16T11:27:13;21.55;;;14.15;;
17858;SDS011;35426;30.698;104.050;2022-08-16T11:29:52;18.83;;;13.57;;
17858;SDS011;35426;30.698;104.050;2022-08-16T11:32:28;21.58;;;13.75;;
17858;SDS011;35426;30.698;104.050;2022-08-16T11:35:05;18.52;;;13.93;;
17858;SDS011;35426;30.698;104.050;2022-08-16T11:37:44;22.40;;;14.75;;
17858;SDS011;35426;30.698;104.050;2022-08-16T11:40:42;20.88;;;14.45;;
17858;SDS011;35426;30.698;104.050;2022-08-16T11:43:22;22.90;;;14.75;;
17858;SDS011;35426;30.698;104.050;2022-08-16T11:45:59;18.52;;;13.65;;
17858;SDS011;35426;30.698;104.050;2022-08-16T11:48:57;19.88;;;14.13;;
17858;SDS011;35426;30.698;104.050;2022-08-16T11:51:30;21.17;;;14.20;;
17858;SDS011;35426;30.698;104.050;2022-08-16T11:54:04;24.85;;;14.57;;
17858;SDS011;35426;30.698;104.050;2022-08-16T11:56:50;20.92;;;14.63;;
17858;SDS011;35426;30.698;104.050;2022-08-16T11:59:24;22.65;;;14.57;;
17858;SDS011;35426;30.698;104.050;2022-08-16T12:02:00;21.88;;;15.15;;
17858;SDS011;35426;30.698;104.050;2022-08-16T12:04:57;26.38;;;15.77;;
17858;SDS011;35426;30.698;104.050;2022-08-16T12:07:38;26.25;;;15.40;;
17858;SDS011;35426;30.698;104.050;2022-08-16T12:10:14;23.88;;;15.00;;
17858;SDS011;35426;30.698;104.050;2022-08-16T12:12:56;26.58;;;15.63;;
17858;SDS011;35426;30.698;104.050;2022-08-16T12:15:37;25.83;;;16.77;;
17858;SDS011;35426;30.698;104.050;2022-08-16T12:18:14;28.02;;;16.65;;
17858;SDS011;35426;30.698;104.050;2022-08-16T12:20:48;26.55;;;16.65;;
17858;SDS011;35426;30.698;104.050;2022-08-16T12:23:25;24.88;;;16.85;;
17858;SDS011;35426;30.698;104.050;2022-08-16T12:26:00;28.90;;;17.60;;
17858;SDS011;35426;30.698;104.050;2022-08-16T12:28:39;24.75;;;17.88;;
17858;SDS011;35426;30.698;104.050;2022-08-16T12:31:24;30.10;;;17.42;;
17858;SDS011;35426;30.698;104.050;2022-08-16T12:33:59;23.35;;;16.98;;
17858;SDS011;35426;30.698;104.050;2022-08-16T12:36:46;30.80;;;17.92;;
17858;SDS011;35426;30.698;104.050;2022-08-16T12:39:20;27.88;;;18.48;;
17858;SDS011;35426;30.698;104.050;2022-08-16T12:41:59;29.25;;;16.77;;
17858;SDS011;35426;30.698;104.050;2022-08-16T12:44:34;24.35;;;17.98;;
17858;SDS011;35426;30.698;104.050;2022-08-16T12:47:17;30.08;;;18.45;;
17858;SDS011;35426;30.698;104.050;2022-08-16T12:50:09;30.17;;;19.13;;
17858;SDS011;35426;30.698;104.050;2022-08-16T12:52:45;32.40;;;18.63;;
17858;SDS011;35426;30.698;104.050;2022-08-16T12:55:21;30.15;;;19.30;;
17858;SDS011;35426;30.698;104.050;2022-08-16T12:58:08;27.60;;;19.63;;
17858;SDS011;35426;30.698;104.050;2022-08-16T13:01:05;29.33;;;18.70;;
17858;SDS011;35426;30.698;104.050;2022-08-16T13:03:43;31.15;;;20.10;;
17858;SDS011;35426;30.698;104.050;2022-08-16T13:06:35;33.85;;;20.02;;
17858;SDS011;35426;30.698;104.050;2022-08-16T13:09:09;28.75;;;18.88;;
17858;SDS011;35426;30.698;104.050;2022-08-16T13:11:58;30.83;;;19.55;;
17858;SDS011;35426;30.698;104.050;2022-08-16T13:14:38;35.50;;;20.00;;
17858;SDS011;35426;30.698;104.050;2022-08-16T13:17:17;32.80;;;20.02;;
17858;SDS011;35426;30.698;104.050;2022-08-16T13:19:57;29.95;;;20.85;;
17858;SDS011;35426;30.698;104.050;2022-08-16T13:22:42;33.65;;;20.35;;
17858;SDS011;35426;30.698;104.050;2022-08-16T13:25:22;33.05;;;20.77;;
17858;SDS011;35426;30.698;104.050;2022-08-16T13:28:05;34.60;;;21.63;;
17858;SDS011;35426;30.698;104.050;2022-08-16T13:30:45;29.80;;;20.77;;
17858;SDS011;35426;30.698;104.050;2022-08-16T13:33:24;32.17;;;21.20;;
17858;SDS011;35426;30.698;104.050;2022-08-16T13:36:06;30.63;;;21.20;;
17858;SDS011;35426;30.698;104.050;2022-08-16T13:39:02;33.90;;;20.95;;
17858;SDS011;35426;30.698;104.050;2022-08-16T13:41:38;28.92;;;22.33;;
17858;SDS011;35426;30.698;104.050;2022-08-16T13:44:21;34.22;;;21.13;;
17858;SDS011;35426;30.698;104.050;2022-08-16T13:47:17;36.47;;;21.73;;
17858;SDS011;35426;30.698;104.050;2022-08-16T13:50:09;30.52;;;19.85;;
17858;SDS011;35426;30.698;104.050;2022-08-16T13:52:58;30.60;;;19.77;;
17858;SDS011;35426;30.698;104.050;2022-08-16T13:55:33;27.40;;;20.35;;
17858;SDS011;35426;30.698;104.050;2022-08-16T13:58:08;32.72;;;21.08;;
17858;SDS011;35426;30.698;104.050;2022-08-16T14:01:02;30.05;;;20.02;;
17858;SDS011;35426;30.698;104.050;2022-08-16T14:03:38;31.45;;;21.05;;
17858;SDS011;35426;30.698;104.050;2022-08-16T14:06:17;33.72;;;20.42;;
17858;SDS011;35426;30.698;104.050;2022-08-16T14:08:52;32.45;;;20.50;;
17858;SDS011;35426;30.698;104.050;2022-08-16T14:11:34;28.95;;;20.25;;
17858;SDS011;35426;30.698;104.050;2022-08-16T14:14:17;30.42;;;19.92;;
17858;SDS011;35426;30.698;104.050;2022-08-16T14:17:05;30.33;;;20.42;;
17858;SDS011;35426;30.698;104.050;2022-08-16T14:19:40;31.98;;;19.88;;
17858;SDS011;35426;30.698;104.050;2022-08-16T14:22:22;31.52;;;20.05;;
17858;SDS011;35426;30.698;104.050;2022-08-16T14:25:11;28.45;;;19.52;;
17858;SDS011;35426;30.698;104.050;2022-08-16T14:27:46;30.00;;;20.17;;
17858;SDS011;35426;30.698;104.050;2022-08-16T14:30:23;30.00;;;18.77;;
17858;SDS011;35426;30.698;104.050;2022-08-16T14:33:01;26.33;;;18.23;;
17858;SDS011;35426;30.698;104.050;2022-08-16T14:35:35;35.90;;;18.45;;
17858;SDS011;35426;30.698;104.050;2022-08-16T14:38:19;30.75;;;18.42;;
17858;SDS011;35426;30.698;104.050;2022-08-16T14:41:04;25.33;;;18.58;;
17858;SDS011;35426;30.698;104.050;2022-08-16T14:43:39;26.35;;;18.48;;
17858;SDS011;35426;30.698;104.050;2022-08-16T14:46:14;24.80;;;17.70;;
17858;SDS011;35426;30.698;104.050;2022-08-16T14:48:51;25.92;;;17.60;;
17858;SDS011;35426;30.698;104.050;2022-08-16T14:51:30;25.05;;;16.88;;
17858;SDS011;35426;30.698;104.050;2022-08-16T14:54:07;30.65;;;16.92;;
17858;SDS011;35426;30.698;104.050;2022-08-16T14:56:42;25.75;;;17.80;;
17858;SDS011;35426;30.698;104.050;2022-08-16T14:59:22;24.45;;;18.10;;
17858;SDS011;35426;30.698;104.050;2022-08-16T15:02:35;23.80;;;17.13;;
17858;SDS011;35426;30.698;104.050;2022-08-16T15:05:10;21.95;;;17.13;;
17858;SDS011;35426;30.698;104.050;2022-08-16T15:07:46;25.58;;;17.10;;
17858;SDS011;35426;30.698;104.050;2022-08-16T15:10:26;26.77;;;17.75;;
17858;SDS011;35426;30.698;104.050;2022-08-16T15:13:07;23.55;;;18.05;;
17858;SDS011;35426;30.698;104.050;2022-08-16T15:15:43;27.17;;;17.20;;
17858;SDS011;35426;30.698;104.050;2022-08-16T15:18:27;23.40;;;18.02;;
17858;SDS011;35426;30.698;104.050;2022-08-16T15:21:03;25.27;;;18.23;;